createdAt,value
2022-11-25T00:02:14.109Z,7.80
2022-11-25T00:04:40.954Z,8.01
2022-11-25T00:07:11.012Z,8.08
2022-11-25T00:09:55.591Z,8.14
2022-11-25T00:12:41.678Z,8.14
2022-11-25T00:15:14.444Z,8.11
2022-11-25T00:17:45.224Z,8.10
2022-11-25T00:20:12.026Z,8.17
2022-11-25T00:22:39.411Z,8.69
2022-11-25T00:25:07.289Z,8.55
2022-11-25T00:27:45.847Z,8.36
2022-11-25T00:30:23.145Z,8.32
2022-11-25T00:32:59.650Z,8.18
2022-11-25T00:35:29.717Z,8.11
2022-11-25T00:37:56.510Z,8.08
2022-11-25T00:40:27.656Z,8.09
2022-11-25T00:43:17.911Z,8.08
2022-11-25T00:45:52.776Z,8.04
2022-11-25T00:48:27.638Z,8.08
2022-11-25T00:50:54.285Z,8.10
2022-11-25T00:53:20.944Z,8.05
2022-11-25T00:56:06.163Z,8.18
2022-11-25T00:58:32.844Z,8.34
2022-11-25T01:01:04.040Z,8.37
2022-11-25T01:03:31.059Z,8.67
2022-11-25T01:06:09.171Z,8.52
2022-11-25T01:08:37.443Z,8.68
2022-11-25T01:11:11.066Z,8.93
2022-11-25T01:13:37.737Z,8.74
2022-11-25T01:16:06.789Z,8.60
2022-11-25T01:18:34.528Z,8.43
2022-11-25T01:21:18.519Z,8.41
2022-11-25T01:23:47.386Z,8.28
2022-11-25T01:26:23.470Z,8.08
2022-11-25T01:28:54.950Z,8.07
2022-11-25T01:31:24.378Z,7.95
2022-11-25T01:33:56.885Z,8.17
2022-11-25T01:36:38.344Z,7.96
2022-11-25T01:39:05.813Z,7.99
2022-11-25T01:44:42.164Z,8.60
2022-11-25T01:47:40.432Z,9.14
2022-11-25T01:50:19.787Z,8.93
2022-11-25T01:52:53.959Z,8.73
2022-11-25T01:55:36.952Z,8.45
2022-11-25T01:58:19.196Z,8.20
2022-11-25T02:00:51.554Z,8.09
2022-11-25T02:03:35.664Z,7.91
2022-11-25T02:06:31.503Z,7.80
2022-11-25T02:09:09.353Z,7.92
2022-11-25T02:11:42.863Z,8.18
2022-11-25T02:14:11.986Z,9.06
2022-11-25T02:16:45.845Z,10.19
2022-11-25T02:19:59.048Z,9.85
2022-11-25T02:22:59.367Z,9.27
2022-11-25T02:25:37.317Z,8.74
2022-11-25T02:28:19.746Z,8.79
2022-11-25T02:30:46.622Z,8.51
2022-11-25T02:33:14.478Z,8.42
2022-11-25T02:35:53.114Z,8.72
2022-11-25T02:38:28.492Z,8.62
2022-11-25T02:41:44.067Z,8.43
2022-11-25T02:44:11.216Z,8.29
2022-11-25T02:46:54.250Z,8.15
2022-11-25T02:49:27.466Z,8.06
2022-11-25T02:52:09.569Z,8.04
2022-11-25T02:54:50.269Z,8.03
2022-11-25T02:57:30.029Z,8.14
2022-11-25T03:00:05.615Z,8.26
2022-11-25T03:02:39.552Z,8.44
2022-11-25T03:05:09.520Z,8.86
2022-11-25T03:07:37.037Z,8.81
2022-11-25T03:10:24.011Z,8.86
2022-11-25T03:12:53.882Z,9.58
2022-11-25T03:15:32.626Z,9.43
2022-11-25T03:18:04.172Z,9.31
2022-11-25T03:20:31.042Z,9.43
2022-11-25T03:22:57.741Z,9.72
2022-11-25T03:25:24.694Z,9.13
2022-11-25T03:27:51.287Z,8.92
2022-11-25T03:30:20.582Z,8.74
2022-11-25T03:32:47.700Z,8.75
2022-11-25T03:35:15.740Z,8.61
2022-11-25T03:37:46.098Z,8.46
2022-11-25T03:40:19.994Z,8.33
2022-11-25T03:42:52.901Z,8.27
2022-11-25T03:45:21.390Z,8.97
2022-11-25T03:47:48.943Z,8.91
2022-11-25T03:50:17.978Z,8.67
2022-11-25T03:52:50.829Z,8.73
2022-11-25T03:55:23.943Z,9.10
2022-11-25T03:57:51.182Z,9.35
2022-11-25T04:00:20.193Z,9.32
2022-11-25T04:02:53.746Z,9.56
2022-11-25T04:05:28.333Z,9.56
2022-11-25T04:08:02.539Z,9.69
2022-11-25T04:10:34.285Z,9.75
2022-11-25T04:13:03.643Z,9.37
2022-11-25T04:15:41.346Z,9.33
2022-11-25T04:18:20.623Z,9.39
2022-11-25T04:20:59.631Z,9.54
2022-11-25T04:23:37.900Z,9.31
2022-11-25T04:26:09.794Z,9.09
2022-11-25T04:28:40.439Z,8.66
2022-11-25T04:31:19.562Z,8.54
2022-11-25T04:33:53.563Z,8.63
2022-11-25T04:36:25.641Z,8.47
2022-11-25T04:38:52.711Z,8.28
2022-11-25T04:41:21.671Z,8.06
2022-11-25T04:43:51.885Z,8.02
2022-11-25T04:46:27.162Z,7.89
2022-11-25T04:49:01.269Z,7.78
2022-11-25T04:51:30.396Z,7.70
2022-11-25T04:54:03.100Z,7.72
2022-11-25T04:56:29.804Z,7.68
2022-11-25T04:59:22.848Z,7.73
2022-11-25T05:01:55.587Z,7.84
2022-11-25T05:04:22.545Z,7.73
2022-11-25T05:07:04.669Z,7.78
2022-11-25T05:09:34.192Z,7.83
2022-11-25T05:12:01.155Z,7.81
2022-11-25T05:14:28.190Z,7.72
2022-11-25T05:16:56.385Z,7.63
2022-11-25T05:19:32.105Z,7.55
2022-11-25T05:22:01.444Z,7.66
2022-11-25T05:24:31.148Z,7.65
2022-11-25T05:27:09.684Z,7.78
2022-11-25T05:29:45.508Z,7.69
2022-11-25T05:32:21.300Z,7.59
2022-11-25T05:34:51.755Z,7.57
2022-11-25T05:37:24.808Z,7.64
2022-11-25T05:39:52.937Z,7.55
2022-11-25T05:42:25.927Z,7.58
2022-11-25T05:44:52.889Z,7.70
2022-11-25T05:47:29.106Z,7.71
2022-11-25T05:50:01.996Z,7.65
2022-11-25T05:52:37.057Z,7.69
2022-11-25T05:55:07.437Z,7.58
2022-11-25T05:57:36.869Z,7.45
2022-11-25T06:00:09.503Z,8.18
2022-11-25T06:02:36.251Z,7.91
2022-11-25T06:05:03.249Z,7.56
2022-11-25T06:07:30.098Z,7.49
2022-11-25T06:10:02.679Z,7.39
2022-11-25T06:12:30.280Z,7.33
2022-11-25T06:15:04.919Z,7.63
2022-11-25T06:17:32.304Z,7.54
2022-11-25T06:20:02.145Z,7.46
2022-11-25T06:22:32.552Z,7.52
2022-11-25T06:25:04.211Z,7.43
2022-11-25T06:27:56.918Z,7.47
2022-11-25T06:30:21.870Z,7.67
2022-11-25T06:32:53.007Z,7.50
2022-11-25T06:35:23.548Z,7.63
2022-11-25T06:37:53.195Z,7.42
2022-11-25T06:40:22.825Z,7.46
2022-11-25T06:42:50.269Z,7.43
2022-11-25T06:45:17.464Z,7.43
2022-11-25T06:47:47.263Z,7.54
2022-11-25T06:50:16.121Z,7.50
2022-11-25T06:52:47.248Z,7.53
2022-11-25T06:55:15.741Z,7.67
2022-11-25T06:57:48.785Z,7.73
2022-11-25T07:00:46.583Z,7.73
2022-11-25T07:03:43.275Z,7.70
2022-11-25T07:06:35.055Z,7.86
2022-11-25T07:09:10.791Z,7.88
2022-11-25T07:11:49.905Z,7.83
2022-11-25T07:14:19.501Z,7.82
2022-11-25T07:16:54.462Z,7.84
2022-11-25T07:19:24.310Z,7.86
2022-11-25T07:22:03.857Z,7.93
2022-11-25T07:24:38.729Z,8.24
2022-11-25T07:27:12.684Z,8.24
2022-11-25T07:32:32.639Z,8.89
2022-11-25T07:34:59.573Z,9.01
2022-11-25T07:37:30.952Z,8.95
2022-11-25T07:40:01.377Z,8.99
2022-11-25T07:42:28.221Z,8.87
2022-11-25T07:44:55.210Z,8.73
2022-11-25T07:47:21.975Z,8.74
2022-11-25T07:49:49.952Z,8.72
2022-11-25T07:52:16.859Z,8.62
2022-11-25T07:54:45.556Z,8.61
2022-11-25T07:57:15.367Z,8.77
2022-11-25T07:59:42.304Z,8.64
2022-11-25T08:02:11.748Z,8.67
2022-11-25T08:04:43.660Z,8.71
2022-11-25T08:07:11.480Z,9.16
2022-11-25T08:09:38.959Z,9.29
2022-11-25T08:12:11.950Z,9.67
2022-11-25T08:14:38.994Z,9.87
2022-11-25T08:17:19.966Z,9.54
2022-11-25T08:19:47.266Z,9.45
2022-11-25T08:22:34.492Z,9.39
2022-11-25T08:25:16.609Z,9.58
2022-11-25T08:28:05.716Z,9.59
2022-11-25T08:30:35.089Z,9.75
2022-11-25T08:33:09.883Z,9.88
2022-11-25T08:35:40.161Z,9.78
2022-11-25T08:38:19.220Z,9.82
2022-11-25T08:40:47.192Z,9.83
2022-11-25T08:43:17.913Z,9.60
2022-11-25T08:45:48.481Z,9.68
2022-11-25T08:48:21.190Z,9.63
2022-11-25T08:50:51.146Z,9.95
2022-11-25T08:53:22.071Z,9.98
2022-11-25T08:55:49.601Z,10.23
2022-11-25T08:58:16.938Z,10.27
2022-11-25T09:00:46.043Z,10.14
2022-11-25T09:03:13.909Z,10.37
2022-11-25T09:05:43.182Z,10.50
2022-11-25T09:08:19.487Z,10.73
2022-11-25T09:10:48.684Z,10.58
2022-11-25T09:13:16.560Z,10.43
2022-11-25T09:15:44.565Z,10.58
2022-11-25T09:18:12.072Z,10.58
2022-11-25T09:20:42.414Z,10.74
2022-11-25T09:23:19.920Z,10.80
2022-11-25T09:26:02.860Z,10.90
2022-11-25T09:28:33.217Z,11.70
2022-11-25T09:31:18.984Z,12.02
2022-11-25T09:33:52.363Z,12.10
2022-11-25T09:36:24.058Z,11.91
2022-11-25T09:38:57.809Z,12.26
2022-11-25T09:42:24.256Z,12.21
2022-11-25T09:45:25.742Z,11.76
2022-11-25T09:48:23.727Z,11.79
2022-11-25T09:51:11.901Z,12.00
2022-11-25T09:53:54.392Z,11.71
2022-11-25T09:56:46.419Z,11.72
2022-11-25T09:59:36.054Z,11.60
2022-11-25T10:02:18.125Z,11.57
2022-11-25T10:05:11.993Z,11.78
2022-11-25T10:07:50.847Z,11.75
2022-11-25T10:10:51.316Z,11.85
2022-11-25T10:13:49.412Z,11.94
2022-11-25T10:16:33.579Z,11.84
2022-11-25T10:19:26.470Z,11.82
2022-11-25T10:21:56.089Z,11.74
2022-11-25T10:24:28.231Z,11.71
2022-11-25T10:27:09.927Z,12.24
2022-11-25T10:29:42.165Z,12.17
2022-11-25T10:32:37.210Z,12.45
2022-11-25T10:35:27.384Z,12.39
2022-11-25T10:37:57.107Z,12.59
2022-11-25T10:40:25.226Z,12.68
2022-11-25T10:43:01.243Z,12.48
2022-11-25T10:45:38.944Z,12.21
2022-11-25T10:48:22.719Z,12.35
2022-11-25T10:51:08.055Z,12.28
2022-11-25T10:53:35.160Z,12.24
2022-11-25T10:56:16.828Z,12.53
2022-11-25T10:58:57.623Z,12.65
2022-11-25T11:01:27.549Z,13.07
2022-11-25T11:04:15.483Z,12.93
2022-11-25T11:06:44.507Z,12.96
2022-11-25T11:09:38.044Z,12.89
2022-11-25T11:12:17.555Z,12.94
2022-11-25T11:14:53.555Z,13.03
2022-11-25T11:17:34.781Z,12.83
2022-11-25T11:20:10.079Z,12.40
2022-11-25T11:22:51.845Z,12.52
2022-11-25T11:25:21.398Z,12.53
2022-11-25T11:27:56.891Z,12.77
2022-11-25T11:30:29.692Z,12.98
2022-11-25T11:33:07.452Z,13.01
2022-11-25T11:35:56.121Z,13.13
2022-11-25T11:38:43.903Z,13.00
2022-11-25T11:41:22.762Z,12.92
2022-11-25T11:44:33.122Z,13.12
2022-11-25T11:47:34.959Z,13.16
2022-11-25T11:50:29.435Z,13.06
2022-11-25T11:53:19.817Z,12.88
2022-11-25T11:56:33.038Z,12.93
2022-11-25T11:58:55.342Z,12.97
2022-11-25T12:02:06.499Z,13.09
2022-11-25T12:04:57.210Z,13.19
2022-11-25T12:07:53.382Z,12.77
2022-11-25T12:10:38.632Z,12.54
2022-11-25T12:13:35.203Z,12.57
2022-11-25T12:16:18.944Z,12.99
2022-11-25T12:18:48.709Z,13.47
2022-11-25T12:21:36.322Z,13.04
2022-11-25T12:24:17.882Z,12.90
2022-11-25T12:27:12.610Z,12.87
2022-11-25T12:29:45.100Z,12.95
2022-11-25T12:32:23.295Z,12.89
2022-11-25T12:35:17.174Z,12.94
2022-11-25T12:38:25.591Z,12.83
2022-11-25T12:40:58.777Z,12.77
2022-11-25T12:43:53.593Z,13.02
2022-11-25T12:46:41.672Z,13.17
2022-11-25T12:49:33.192Z,13.67
2022-11-25T12:52:17.827Z,14.03
2022-11-25T12:55:03.142Z,14.09
2022-11-25T12:57:49.606Z,14.15
2022-11-25T13:00:43.404Z,13.75
2022-11-25T13:03:37.789Z,13.81
2022-11-25T13:06:39.412Z,13.47
2022-11-25T13:09:32.408Z,13.52
2022-11-25T13:12:35.084Z,13.81
2022-11-25T13:15:24.010Z,13.91
2022-11-25T13:18:14.182Z,14.09
2022-11-25T13:20:53.219Z,14.29
2022-11-25T13:23:31.823Z,14.14
2022-11-25T13:26:36.240Z,14.43
2022-11-25T13:29:29.147Z,13.81
2022-11-25T13:31:59.261Z,14.23
2022-11-25T13:34:39.069Z,14.08
2022-11-25T13:37:36.469Z,13.87
2022-11-25T13:40:32.237Z,13.79
2022-11-25T13:43:00.557Z,13.82
2022-11-25T13:45:40.234Z,13.82
2022-11-25T13:48:19.012Z,13.99
2022-11-25T13:51:10.192Z,13.84
2022-11-25T13:53:36.158Z,13.92
2022-11-25T13:56:15.845Z,13.89
2022-11-25T13:59:12.267Z,14.37
2022-11-25T14:02:01.355Z,14.25
2022-11-25T14:05:04.475Z,13.72
2022-11-25T14:07:56.867Z,13.96
2022-11-25T14:11:24.530Z,13.44
2022-11-25T14:18:02.714Z,13.56
2022-11-25T14:21:01.553Z,13.29
2022-11-25T14:24:20.044Z,13.68
2022-11-25T14:27:05.932Z,13.46
2022-11-25T14:29:56.927Z,13.05
2022-11-25T14:32:48.778Z,13.23
2022-11-25T14:35:50.518Z,13.37
2022-11-25T14:39:01.629Z,13.15
2022-11-25T14:41:54.147Z,13.32
2022-11-25T14:44:35.821Z,12.94
2022-11-25T14:47:13.022Z,13.43
2022-11-25T14:50:33.267Z,13.32
2022-11-25T14:53:35.080Z,13.52
2022-11-25T14:56:11.733Z,13.42
2022-11-25T14:58:52.580Z,13.03
2022-11-25T15:01:53.835Z,12.91
2022-11-25T15:05:05.323Z,12.54
2022-11-25T15:07:42.144Z,12.68
2022-11-25T15:10:42.425Z,12.48
2022-11-25T15:16:57.694Z,12.22
2022-11-25T15:19:35.888Z,12.31
2022-11-25T15:22:24.679Z,12.35
2022-11-25T15:24:55.952Z,12.68
2022-11-25T15:27:31.636Z,12.70
2022-11-25T15:30:36.648Z,12.36
2022-11-25T15:33:11.565Z,12.12
2022-11-25T15:35:48.413Z,12.03
2022-11-25T15:38:19.822Z,11.82
2022-11-25T15:41:45.359Z,11.82
2022-11-25T15:44:40.904Z,11.72
2022-11-25T15:47:28.065Z,11.71
2022-11-25T15:50:00.458Z,12.09
2022-11-25T15:52:33.268Z,12.70
2022-11-25T15:55:32.349Z,12.77
2022-11-25T16:01:27.386Z,12.05
2022-11-25T16:04:31.184Z,11.77
2022-11-25T16:07:36.800Z,11.64
2022-11-25T16:10:26.661Z,11.67
2022-11-25T16:13:22.395Z,11.67
2022-11-25T16:16:35.109Z,11.51
2022-11-25T16:19:38.110Z,11.37
2022-11-25T16:22:05.831Z,11.40
2022-11-25T16:25:05.129Z,11.53
2022-11-25T16:27:37.799Z,11.45
2022-11-25T16:30:24.305Z,11.48
2022-11-25T16:32:50.996Z,11.72
2022-11-25T16:35:22.197Z,11.65
2022-11-25T16:37:49.784Z,11.46
2022-11-25T16:40:28.709Z,11.42
2022-11-25T16:42:59.561Z,11.23
2022-11-25T16:45:38.936Z,11.17
2022-11-25T16:48:33.217Z,11.23
2022-11-25T16:51:05.542Z,11.18
2022-11-25T16:53:33.090Z,11.16
2022-11-25T16:56:03.315Z,11.27
2022-11-25T16:58:32.975Z,11.24
2022-11-25T17:03:51.941Z,11.08
2022-11-25T17:06:29.674Z,11.08
2022-11-25T17:09:02.438Z,11.05
2022-11-25T17:11:32.645Z,11.00
2022-11-25T17:14:10.932Z,11.01
2022-11-25T17:16:43.745Z,11.35
2022-11-25T17:19:36.493Z,11.38
2022-11-25T17:22:19.801Z,11.08
2022-11-25T17:24:55.343Z,11.08
2022-11-25T17:27:39.013Z,11.08
2022-11-25T17:30:24.283Z,11.10
2022-11-25T17:33:12.616Z,11.08
2022-11-25T17:35:43.118Z,11.21
2022-11-25T17:38:14.263Z,11.31
2022-11-25T17:40:50.912Z,11.62
2022-11-25T17:43:25.772Z,11.57
2022-11-25T17:45:58.887Z,11.29
2022-11-25T17:48:31.687Z,11.15
2022-11-25T17:51:05.911Z,11.08
2022-11-25T17:53:38.823Z,11.03
2022-11-25T17:56:30.481Z,11.07
2022-11-25T17:59:05.822Z,11.10
2022-11-25T18:01:32.836Z,10.98
2022-11-25T18:04:40.093Z,10.91
2022-11-25T18:07:07.837Z,11.18
2022-11-25T18:09:41.351Z,11.52
2022-11-25T18:12:29.084Z,11.53
2022-11-25T18:15:14.862Z,11.53
2022-11-25T18:17:43.609Z,11.32
2022-11-25T18:20:25.180Z,11.25
2022-11-25T18:22:53.175Z,11.30
2022-11-25T18:25:24.819Z,11.09
2022-11-25T18:27:57.654Z,11.01
2022-11-25T18:30:28.739Z,11.14
2022-11-25T18:33:02.079Z,11.09
2022-11-25T18:35:36.039Z,11.01
2022-11-25T18:38:03.940Z,10.97
2022-11-25T18:40:31.006Z,11.01
2022-11-25T18:43:03.242Z,11.00
2022-11-25T18:45:38.492Z,10.98
2022-11-25T18:48:24.406Z,10.89
2022-11-25T18:50:52.917Z,10.84
2022-11-25T18:53:20.405Z,10.76
2022-11-25T18:55:48.642Z,10.72
2022-11-25T18:58:18.360Z,10.88
2022-11-25T19:00:55.827Z,10.88
2022-11-25T19:03:33.920Z,11.01
2022-11-25T19:06:05.309Z,11.12
2022-11-25T19:08:33.950Z,10.95
2022-11-25T19:11:04.200Z,10.83
2022-11-25T19:13:42.270Z,10.81
2022-11-25T19:16:21.464Z,10.82
2022-11-25T19:18:52.424Z,10.81
2022-11-25T19:21:23.397Z,10.90
2022-11-25T19:23:51.887Z,10.90
2022-11-25T19:26:29.500Z,10.85
2022-11-25T19:29:04.182Z,10.84
2022-11-25T19:31:44.186Z,10.87
2022-11-25T19:34:38.246Z,10.83
2022-11-25T19:37:05.384Z,10.95
2022-11-25T19:39:39.606Z,11.08
2022-11-25T19:42:06.488Z,11.12
2022-11-25T19:44:34.759Z,11.02
2022-11-25T19:47:15.257Z,10.99
2022-11-25T19:49:46.208Z,10.97
2022-11-25T19:52:35.838Z,10.91
2022-11-25T19:55:16.008Z,10.89
2022-11-25T19:57:47.008Z,10.89
2022-11-25T20:00:20.205Z,10.93
2022-11-25T20:02:52.226Z,10.91
2022-11-25T20:05:44.886Z,10.91
2022-11-25T20:08:32.711Z,10.94
2022-11-25T20:11:02.341Z,10.90
2022-11-25T20:13:36.707Z,10.85
2022-11-25T20:16:16.144Z,10.87
2022-11-25T20:18:46.630Z,10.88
2022-11-25T20:21:37.816Z,10.85
2022-11-25T20:24:12.053Z,10.95
2022-11-25T20:26:50.988Z,11.02
2022-11-25T20:29:27.535Z,10.98
2022-11-25T20:31:57.528Z,10.95
2022-11-25T20:34:41.917Z,10.93
2022-11-25T20:37:19.099Z,10.99
2022-11-25T20:39:47.903Z,10.96
2022-11-25T20:42:15.375Z,11.01
2022-11-25T20:44:51.110Z,11.06
2022-11-25T20:47:22.347Z,10.96
2022-11-25T20:50:01.455Z,10.95
2022-11-25T20:52:33.268Z,10.97
2022-11-25T20:55:13.931Z,10.91
2022-11-25T20:57:44.944Z,11.12
2022-11-25T21:00:26.992Z,11.52
2022-11-25T21:03:00.443Z,11.51
2022-11-25T21:05:30.662Z,11.32
2022-11-25T21:08:01.060Z,11.19
2022-11-25T21:10:35.353Z,11.13
2022-11-25T21:13:21.238Z,11.42
2022-11-25T21:15:53.139Z,11.60
2022-11-25T21:18:24.938Z,11.78
2022-11-25T21:21:03.790Z,11.89
2022-11-25T21:23:40.424Z,11.90
2022-11-25T21:26:22.974Z,12.01
2022-11-25T21:29:02.492Z,11.95
2022-11-25T21:31:39.448Z,11.94
2022-11-25T21:34:19.955Z,11.57
2022-11-25T21:36:58.154Z,11.44
2022-11-25T21:39:35.226Z,11.34
2022-11-25T21:42:04.992Z,11.24
2022-11-25T21:44:48.564Z,11.03
2022-11-25T21:47:23.833Z,11.12
2022-11-25T21:49:54.547Z,11.14
2022-11-25T21:52:25.681Z,11.35
2022-11-25T21:54:56.892Z,11.54
2022-11-25T21:57:31.783Z,11.50
2022-11-25T22:00:06.205Z,11.56
2022-11-25T22:02:33.283Z,11.50
2022-11-25T22:05:00.133Z,11.52
2022-11-25T22:07:33.837Z,11.38
2022-11-25T22:10:07.815Z,11.31
2022-11-25T22:12:45.774Z,11.35
2022-11-25T22:15:21.786Z,11.41
2022-11-25T22:18:02.137Z,11.28
2022-11-25T22:20:37.428Z,11.19
2022-11-25T22:23:28.019Z,11.19
2022-11-25T22:26:01.943Z,11.20
2022-11-25T22:28:32.728Z,11.30
2022-11-25T22:31:02.697Z,11.24
2022-11-25T22:33:42.042Z,11.31
2022-11-25T22:36:31.861Z,11.42
2022-11-25T22:39:17.418Z,11.54
2022-11-25T22:42:07.174Z,11.35
2022-11-25T22:44:51.592Z,11.26
2022-11-25T22:47:42.497Z,11.10
2022-11-25T22:50:35.282Z,11.23
2022-11-25T22:53:17.121Z,11.21
2022-11-25T22:55:47.521Z,11.24
2022-11-25T22:58:20.163Z,11.09
2022-11-25T23:01:12.544Z,11.09
2022-11-25T23:03:58.317Z,11.09
2022-11-25T23:06:28.434Z,10.89
2022-11-25T23:09:26.097Z,10.81
2022-11-25T23:11:58.878Z,11.00
2022-11-25T23:14:30.755Z,10.97
2022-11-25T23:17:00.131Z,10.93
2022-11-25T23:19:46.704Z,10.86
2022-11-25T23:22:33.634Z,10.93
2022-11-25T23:25:03.404Z,11.00
2022-11-25T23:27:30.332Z,10.96
2022-11-25T23:30:08.805Z,11.11
2022-11-25T23:32:42.983Z,11.18
2022-11-25T23:35:28.135Z,11.25
2022-11-25T23:38:02.171Z,11.27
2022-11-25T23:40:29.248Z,11.24
2022-11-25T23:43:24.453Z,11.09
2022-11-25T23:45:58.735Z,10.99
2022-11-25T23:48:30.174Z,11.01
2022-11-25T23:51:00.638Z,10.74
2022-11-25T23:53:44.861Z,10.82
2022-11-25T23:56:19.925Z,10.94
2022-11-25T23:58:46.886Z,10.84
